Time;durP1;ratioP1;P1;durP2;ratioP2;P2;SDS_P1;SDS_P2;PMS_P1;PMS_P2;Temp;Humidity;BMP_temperature;BMP_pressure;BME280_temperature;BME280_humidity;BME280_pressure;Samples;Min_cycle;Max_cycle;Signal;HPM_P1;HPM_P2
2020/12/16 00:02:05;;;;;;;;;;;;;;;;;;5014332;28;20001;-64
2020/12/16 00:04:31;;;;;;;;;;;;;;;;;;5014247;28;19905;-63
2020/12/16 00:06:57;;;;;;;;;;;;;;;;;;5014313;28;19901;-63
2020/12/16 00:09:23;;;;;;;;;;;;;;;;;;5014430;28;19936;-63
2020/12/16 00:11:49;;;;;;;;;;;;;;;;;;5012632;28;19928;-64
2020/12/16 00:14:14;;;;;;;;;;;;;;;;;;5014177;28;19911;-64
2020/12/16 00:16:40;;;;;;;;;;;;;;;;;;5012663;28;20007;-63
2020/12/16 00:19:06;;;;;;;;;;;;;;;;;;5014176;28;20020;-63
2020/12/16 00:21:32;;;;;;;;;;;;;;;;;;5014090;28;19913;-64
2020/12/16 00:23:58;;;;;;;;;;;;;;;;;;5013958;28;19930;-65
2020/12/16 00:26:24;;;;;;;;;;;;;;;;;;5012812;28;19906;-64
2020/12/16 00:28:50;;;;;;;;;;;;;;;;;;5014472;28;20274;-64
2020/12/16 00:31:16;;;;;;;;;;;;;;;;;;5012945;28;19949;-64
2020/12/16 00:33:42;;;;;;;;;;;;;;;;;;5014578;28;20378;-63
2020/12/16 00:36:08;;;;;;;;;;;;;;;;;;5013242;28;20003;-64
2020/12/16 00:38:34;;;;;;;;;;;;;;;;;;5013878;28;19905;-64
2020/12/16 00:41:00;;;;;;;;;;;;;;;;;;5012566;28;20269;-64
2020/12/16 00:43:26;;;;;;;;;;;;;;;;;;5013848;28;19913;-63
2020/12/16 00:45:51;;;;;;;;;;;;;;;;;;5013783;28;19940;-64
2020/12/16 00:48:17;;;;;;;;;;;;;;;;;;5013611;28;19905;-64
2020/12/16 00:50:43;;;;;;;;;;;;;;;;;;5013683;28;20493;-65
2020/12/16 00:53:09;;;;;;;;;;;;;;;;;;5013716;28;19959;-65
2020/12/16 00:55:35;;;;;;;;;;;;;;;;;;5014100;28;19906;-63
2020/12/16 00:58:01;;;;;;;;;;;;;;;;;;5013746;28;19916;-64
2020/12/16 01:00:27;;;;;;;;;;;;;;;;;;5013664;28;19934;-64
2020/12/16 01:02:53;;;;;;;;;;;;;;;;;;5013244;28;19914;-65
2020/12/16 01:05:19;;;;;;;;;;;;;;;;;;5013340;28;20278;-64
2020/12/16 01:07:45;;;;;;;;;;;;;;;;;;5013175;28;19928;-64
2020/12/16 01:10:11;;;;;;;;;;;;;;;;;;5013480;28;20365;-65
2020/12/16 01:12:37;;;;;;;;;;;;;;;;;;5013072;28;19913;-62
2020/12/16 01:15:03;;;;;;;;;;;;;;;;;;5011809;28;19909;-65
2020/12/16 01:17:28;;;;;;;;;;;;;;;;;;5013180;28;19996;-63
2020/12/16 01:19:54;;;;;;;;;;;;;;;;;;5013163;28;20454;-64
2020/12/16 01:22:20;;;;;;;;;;;;;;;;;;5011917;28;19910;-64
2020/12/16 01:24:46;;;;;;;;;;;;;;;;;;5013096;28;19979;-64
2020/12/16 01:27:12;;;;;;;;;;;;;;;;;;5011926;28;19931;-64
2020/12/16 01:29:38;;;;;;;;;;;;;;;;;;5013150;28;19906;-65
2020/12/16 01:32:04;;;;;;;;;;;;;;;;;;5013020;28;20265;-64
2020/12/16 01:34:30;;;;;;;;;;;;;;;;;;5013168;28;19906;-64
2020/12/16 01:36:56;;;;;;;;;;;;;;;;;;5013039;28;20341;-65
2020/12/16 01:39:22;;;;;;;;;;;;;;;;;;5011685;28;20376;-63
2020/12/16 01:41:48;;;;;;;;;;;;;;;;;;5013643;28;19906;-65
2020/12/16 01:44:14;;;;;;;;;;;;;;;;;;5017016;28;19944;-63
2020/12/16 01:46:39;;;;;;;;;;;;;;;;;;5017088;28;19916;-64
2020/12/16 01:49:05;;;;;;;;;;;;;;;;;;5016864;28;20314;-65
2020/12/16 01:51:31;;;;;;;;;;;;;;;;;;5016939;28;19981;-64
2020/12/16 01:53:58;;;;;;;;;;;;;;;;;;5016837;28;19944;-63
2020/12/16 01:56:23;;;;;;;;;;;;;;;;;;5015490;28;19955;-64
2020/12/16 01:58:49;;;;;;;;;;;;;;;;;;5016830;28;20433;-64
2020/12/16 02:01:15;;;;;;;;;;;;;;;;;;5016611;28;20004;-65
2020/12/16 02:03:41;;;;;;;;;;;;;;;;;;5016474;28;20012;-62
2020/12/16 02:06:07;;;;;;;;;;;;;;;;;;5016542;28;19945;-62
2020/12/16 02:08:33;;;;;;;;;;;;;;;;;;5016692;28;19952;-63
2020/12/16 02:10:59;;;;;;;;;;;;;;;;;;5018392;28;20400;-63
2020/12/16 02:13:25;;;;;;;;;;;;;;;;;;5021874;28;19929;-64
2020/12/16 02:15:51;;;;;;;;;;;;;;;;;;5016502;28;19988;-63
2020/12/16 02:18:17;;;;;;;;;;;;;;;;;;5016472;28;20384;-63
2020/12/16 02:20:42;;;;;;;;;;;;;;;;;;5015154;28;19959;-63
2020/12/16 02:23:08;;;;;;;;;;;;;;;;;;5014835;28;20019;-63
2020/12/16 02:25:34;;;;;;;;;;;;;;;;;;5016340;28;19956;-63
2020/12/16 02:28:01;;;;;;;;;;;;;;;;;;5016145;28;19905;-63
2020/12/16 02:30:27;;;;;;;;;;;;;;;;;;5015976;28;19913;-63
2020/12/16 02:32:52;;;;;;;;;;;;;;;;;;5016312;28;19912;-61
2020/12/16 02:35:18;;;;;;;;;;;;;;;;;;5015985;28;19953;-63
2020/12/16 02:37:44;;;;;;;;;;;;;;;;;;5015945;28;19960;-63
2020/12/16 02:40:10;;;;;;;;;;;;;;;;;;5015896;28;19909;-63
2020/12/16 02:42:36;;;;;;;;;;;;;;;;;;5015973;28;19913;-62
2020/12/16 02:45:02;;;;;;;;;;;;;;;;;;5015876;28;19909;-63
2020/12/16 02:47:28;;;;;;;;;;;;;;;;;;5015617;28;19954;-62
2020/12/16 02:49:54;;;;;;;;;;;;;;;;;;5014490;28;19951;-63
2020/12/16 02:52:20;;;;;;;;;;;;;;;;;;5015601;28;20017;-63
2020/12/16 02:54:46;;;;;;;;;;;;;;;;;;5015769;28;19976;-63
2020/12/16 02:57:12;;;;;;;;;;;;;;;;;;5014453;28;19905;-64
2020/12/16 02:59:37;;;;;;;;;;;;;;;;;;5015527;28;19912;-64
2020/12/16 03:02:03;;;;;;;;;;;;;;;;;;5015613;28;19917;-64
2020/12/16 03:04:29;;;;;;;;;;;;;;;;;;5015430;28;19917;-64
2020/12/16 03:06:55;;;;;;;;;;;;;;;;;;5015514;28;20321;-64
2020/12/16 03:09:21;;;;;;;;;;;;;;;;;;5015470;28;19905;-64
2020/12/16 03:11:47;;;;;;;;;;;;;;;;;;5015350;28;20270;-63
2020/12/16 03:14:13;;;;;;;;;;;;;;;;;;5015328;28;20376;-63
2020/12/16 03:16:39;;;;;;;;;;;;;;;;;;5015401;28;20354;-64
2020/12/16 03:19:05;;;;;;;;;;;;;;;;;;5014085;28;19912;-64
2020/12/16 03:21:31;;;;;;;;;;;;;;;;;;5015300;28;19905;-65
2020/12/16 03:23:57;;;;;;;;;;;;;;;;;;5015116;28;19914;-63
2020/12/16 03:26:23;;;;;;;;;;;;;;;;;;5015241;28;19905;-64
2020/12/16 03:28:49;;;;;;;;;;;;;;;;;;5015923;28;20250;-64
2020/12/16 03:31:15;;;;;;;;;;;;;;;;;;5013809;28;19911;-64
2020/12/16 03:33:40;;;;;;;;;;;;;;;;;;5015006;28;19921;-64
2020/12/16 03:36:06;;;;;;;;;;;;;;;;;;5014999;28;19906;-64
2020/12/16 03:38:32;;;;;;;;;;;;;;;;;;5014813;28;20020;-64
2020/12/16 03:40:58;;;;;;;;;;;;;;;;;;5014923;28;19960;-64
2020/12/16 03:43:24;;;;;;;;;;;;;;;;;;5014729;28;19913;-64
2020/12/16 03:45:50;;;;;;;;;;;;;;;;;;5014826;28;19909;-62
2020/12/16 03:48:16;;;;;;;;;;;;;;;;;;5014579;28;19931;-63
2020/12/16 03:50:42;;;;;;;;;;;;;;;;;;5014729;28;19963;-62
2020/12/16 03:53:08;;;;;;;;;;;;;;;;;;5014684;28;19956;-63
2020/12/16 03:55:34;;;;;;;;;;;;;;;;;;5014607;28;19906;-63
2020/12/16 03:58:00;;;;;;;;;;;;;;;;;;5014535;28;19910;-63
2020/12/16 04:00:26;;;;;;;;;;;;;;;;;;5014316;28;20308;-63
2020/12/16 04:02:51;;;;;;;;;;;;;;;;;;5013125;28;20896;-63
2020/12/16 04:05:17;;;;;;;;;;;;;;;;;;5013893;28;20020;-63
2020/12/16 04:07:44;;;;;;;10.55;4.25;;;;;;;;;;5012519;28;20071;-62
2020/12/16 04:10:11;;;;;;;8.32;3.05;;;;;;;;;;5013948;28;20433;-63
2020/12/16 04:12:37;;;;;;;6.18;3.28;;;;;;;;;;5013869;28;20033;-63
2020/12/16 04:15:04;;;;;;;6.47;2.63;;;;;;;;;;5013998;28;20056;-64
2020/12/16 04:17:33;;;;;;;7.13;2.75;;;;;;;;;;5013843;28;20483;-63
2020/12/16 04:20:00;;;;;;;8.38;2.80;;;;;;;;;;5012426;28;20418;-63
2020/12/16 04:22:26;;;;;;;6.35;2.72;;;;;;;;;;5013411;28;20398;-63
2020/12/16 04:24:52;;;;;;;8.93;3.17;;;;;;;;;;5013654;28;20475;-63
2020/12/16 04:27:18;;;;;;;;;;;;;;;;;;5012731;28;20030;-62
2020/12/16 04:29:44;;;;;;;;;;;;;;;;;;5012648;28;20408;-63
2020/12/16 04:32:10;;;;;;;;;;;;;;;;;;5012639;28;19905;-62
2020/12/16 04:34:36;;;;;;;;;;;;;;;;;;5013925;28;19906;-63
2020/12/16 04:37:02;;;;;;;;;;;;;;;;;;5013771;28;19936;-63
2020/12/16 04:39:29;;;;;;;;;;;;;;;;;;5013765;28;20004;-63
2020/12/16 04:41:55;;;;;;;;;;;;;;;;;;5013657;28;19905;-63
2020/12/16 04:44:21;;;;;;;;;;;;;;;;;;5014522;28;19916;-63
2020/12/16 04:46:47;;;;;;;;;;;;;;;;;;5013665;28;19905;-61
2020/12/16 04:49:13;;;;;;;;;;;;;;;;;;5013614;28;20003;-62
2020/12/16 04:51:39;;;;;;;;;;;;;;;;;;5013226;28;19905;-63
2020/12/16 04:54:05;;;;;;;;;;;;;;;;;;5012243;28;19909;-63
2020/12/16 04:56:30;;;;;;;;;;;;;;;;;;5013587;28;19905;-64
2020/12/16 04:58:56;;;;;;;;;;;;;;;;;;5013315;28;19906;-64
2020/12/16 05:01:22;;;;;;;;;;;;;;;;;;5013537;28;19976;-63
2020/12/16 05:03:48;;;;;;;;;;;;;;;;;;5013059;28;19983;-63
2020/12/16 05:06:14;;;;;;;;;;;;;;;;;;5013265;28;20362;-64
2020/12/16 05:08:40;;;;;;;;;;;;;;;;;;5013303;28;20346;-64
2020/12/16 05:11:06;;;;;;;;;;;;;;;;;;5013102;28;19913;-64
2020/12/16 05:13:32;;;;;;;;;;;;;;;;;;5011957;28;19913;-64
2020/12/16 05:15:58;;;;;;;;;;;;;;;;;;5012539;28;19906;-63
2020/12/16 05:18:25;;;;;;;;;;;;;;;;;;5012890;28;19912;-65
2020/12/16 05:20:51;;;;;;;;;;;;;;;;;;5012962;28;19905;-64
2020/12/16 05:23:17;;;;;;;;;;;;;;;;;;5012831;28;20289;-64
2020/12/16 05:25:43;;;;;;;;;;;;;;;;;;5013060;28;20376;-63
2020/12/16 05:28:09;;;;;;;;;;;;;;;;;;5011497;28;19923;-63
2020/12/16 05:30:35;;;;;;;;;;;;;;;;;;5013043;28;19909;-62
2020/12/16 05:33:00;;;;;;;;;;;;;;;;;;5011529;28;19901;-64
2020/12/16 05:35:26;;;;;;;;;;;;;;;;;;5012784;28;19909;-63
2020/12/16 05:37:52;;;;;;;;;;;;;;;;;;5012886;28;19909;-63
2020/12/16 05:40:20;;;;;;;;;;;;;;;;;;5012845;28;19905;-63
2020/12/16 05:42:46;;;;;;;;;;;;;;;;;;5011546;28;19909;-65
2020/12/16 05:45:12;;;;;;;;;;;;;;;;;;5011544;28;19912;-61
2020/12/16 05:47:39;;;;;;;;;;;;;;;;;;5012892;28;20068;-62
2020/12/16 05:50:05;;;;;;;;;;;;;;;;;;5012800;28;19959;-63
2020/12/16 05:52:31;;;;;;;;;;;;;;;;;;5012637;28;19905;-64
2020/12/16 05:54:57;;;;;;;;;;;;;;;;;;5012756;28;20378;-63
2020/12/16 05:57:29;;;;;;;;;;;;;;;;;;5012871;28;20389;-63
2020/12/16 05:59:55;;;;;;;;;;;;;;;;;;5013207;28;19901;-63
2020/12/16 06:02:21;;;;;;;;;;;;;;;;;;5012586;28;19913;-63
2020/12/16 06:04:47;;;;;;;;;;;;;;;;;;5012783;28;20374;-64
2020/12/16 06:07:13;;;;;;;;;;;;;;;;;;5012675;28;19905;-64
2020/12/16 06:09:39;;;;;;;;;;;;;;;;;;5012705;28;19909;-64
2020/12/16 06:12:06;;;;;;;;;;;;;;;;;;5012444;28;19929;-64
2020/12/16 06:14:32;;;;;;;;;;;;;;;;;;5012656;28;19992;-64
2020/12/16 06:16:57;;;;;;;;;;;;;;;;;;5012578;28;19948;-64
2020/12/16 06:19:23;;;;;;;;;;;;;;;;;;5012553;28;19928;-64
2020/12/16 06:21:49;;;;;;;;;;;;;;;;;;5012446;28;20381;-65
2020/12/16 06:24:15;;;;;;;;;;;;;;;;;;5011103;28;19909;-64
2020/12/16 06:26:41;;;;;;;;;;;;;;;;;;5011009;28;19910;-64
2020/12/16 06:29:07;;;;;;;;;;;;;;;;;;5015321;28;19905;-64
2020/12/16 06:31:33;;;;;;;;;;;;;;;;;;5015975;28;20277;-64
2020/12/16 06:33:59;;;;;;;;;;;;;;;;;;5014761;28;20370;-66
2020/12/16 06:36:25;;;;;;;;;;;;;;;;;;5015916;28;19912;-63
2020/12/16 06:38:51;;;;;;;;;;;;;;;;;;5015880;28;19929;-64
2020/12/16 06:41:17;;;;;;;;;;;;;;;;;;5014531;28;20362;-64
2020/12/16 06:43:44;;;;;;;;;;;;;;;;;;5015783;28;20018;-65
2020/12/16 06:46:10;;;;;;;;;;;;;;;;;;5015953;28;19905;-65
2020/12/16 06:48:36;;;;;;;;;;;;;;;;;;5015557;28;19925;-65
2020/12/16 06:51:02;;;;;;;;;;;;;;;;;;5015766;28;19905;-67
2020/12/16 06:53:28;;;;;;;;;;;;;;;;;;5015960;28;19949;-68
2020/12/16 06:55:54;;;;;;;;;;;;;;;;;;5014551;28;19905;-64
2020/12/16 06:58:20;;;;;;;;;;;;;;;;;;5015711;28;20281;-67
2020/12/16 07:00:46;;;;;;;;;;;;;;;;;;5015479;28;19924;-66
2020/12/16 07:03:12;;;;;;;;;;;;;;;;;;5015536;28;20281;-68
2020/12/16 07:05:39;;;;;;;;;;;;;;;;;;5015540;28;19905;-67
2020/12/16 07:08:05;;;;;;;;;;;;;;;;;;5015378;28;19921;-68
2020/12/16 07:10:31;;;;;;;;;;;;;;;;;;5015456;28;19905;-68
2020/12/16 07:12:57;;;;;;;;;;;;;;;;;;5016553;28;19939;-68
2020/12/16 07:15:23;;;;;;;;;;;;;;;;;;5020111;28;19951;-68
2020/12/16 07:17:49;;;;;;;;;;;;;;;;;;5018631;28;20346;-67
2020/12/16 07:20:15;;;;;;;;;;;;;;;;;;5015332;28;19909;-69
2020/12/16 07:22:41;;;;;;;;;;;;;;;;;;5015095;28;19909;-68
2020/12/16 07:25:07;;;;;;;;;;;;;;;;;;5014474;28;19906;-68
2020/12/16 07:27:33;;;;;;;;;;;;;;;;;;5012037;28;19924;-68
2020/12/16 07:29:59;;;;;;;;;;;;;;;;;;5013493;28;19983;-66
2020/12/16 07:32:25;;;;;;;;;;;;;;;;;;5013432;28;20338;-69
2020/12/16 07:34:51;;;;;;;;;;;;;;;;;;5013942;28;19968;-67
2020/12/16 07:37:17;;;;;;;;;;;;;;;;;;5014107;28;19968;-68
2020/12/16 07:39:44;;;;;;;;;;;;;;;;;;5012209;28;19927;-67
2020/12/16 07:42:09;;;;;;;;;;;;;;;;;;5014793;28;19928;-70
2020/12/16 07:44:35;;;;;;;;;;;;;;;;;;5014676;28;20469;-69
2020/12/16 07:47:01;;;;;;;;;;;;;;;;;;5014770;28;20374;-68
2020/12/16 07:49:29;;;;;;;;;;;;;;;;;;5015418;28;20028;-68
2020/12/16 07:51:55;;;;;;;;;;;;;;;;;;5014686;28;20416;-68
2020/12/16 07:54:21;;;;;;;;;;;;;;;;;;5014710;28;19964;-70
2020/12/16 07:56:47;;;;;;;;;;;;;;;;;;5014603;28;19916;-69
2020/12/16 07:59:13;;;;;;;;;;;;;;;;;;5013396;28;19912;-69
2020/12/16 08:01:39;;;;;;;;;;;;;;;;;;5013245;28;19905;-68
2020/12/16 08:04:05;;;;;;;;;;;;;;;;;;5014508;28;19913;-68
2020/12/16 08:06:31;;;;;;;;;;;;;;;;;;5014377;28;19951;-69
2020/12/16 08:08:56;;;;;;;;;;;;;;;;;;5014344;28;19912;-69
2020/12/16 08:11:22;;;;;;;;;;;;;;;;;;5013192;28;19905;-70
2020/12/16 08:13:48;;;;;;;;;;;;;;;;;;5014194;28;19924;-69
2020/12/16 08:16:14;;;;;;;;;;;;;;;;;;5014323;28;19905;-69
2020/12/16 08:18:40;;;;;;;;;;;;;;;;;;5012922;28;19936;-69
2020/12/16 08:21:06;;;;;;;;;;;;;;;;;;5014144;28;19999;-67
2020/12/16 08:23:32;;;;;;;;;;;;;;;;;;5014121;28;20015;-69
2020/12/16 08:25:58;;;;;;;;;;;;;;;;;;5013966;28;19951;-69
2020/12/16 08:28:24;;;;;;;;;;;;;;;;;;5016005;28;19945;-69
2020/12/16 08:30:50;;;;;;;;;;;;;;;;;;5020297;28;19909;-69
2020/12/16 08:33:16;;;;;;;;;;;;;;;;;;5014772;28;19905;-70
2020/12/16 08:35:42;;;;;;;;;;;;;;;;;;5013247;28;19902;-70
2020/12/16 08:38:09;;;;;;;;;;;;;;;;;;5013915;28;19920;-66
2020/12/16 08:40:35;;;;;;;;;;;;;;;;;;5016429;28;19956;-73
2020/12/16 08:43:01;;;;;;;;;;;;;;;;;;5014151;28;19917;-71
2020/12/16 08:45:28;;;;;;;;;;;;;;;;;;5015250;28;19909;-69
2020/12/16 08:47:54;;;;;;;;;;;;;;;;;;5013714;28;19902;-66
2020/12/16 08:50:20;;;;;;;;;;;;;;;;;;5013501;28;19932;-67
2020/12/16 08:52:46;;;;;;;;;;;;;;;;;;5012041;28;20285;-66
2020/12/16 08:55:12;;;;;;;;;;;;;;;;;;5013452;28;19908;-66
2020/12/16 08:57:38;;;;;;;;;;;;;;;;;;5013525;28;20308;-65
2020/12/16 09:00:04;;;;;;;;;;;;;;;;;;5013517;28;20313;-65
2020/12/16 09:02:30;;;;;;;;;;;;;;;;;;5012959;28;19968;-68
2020/12/16 09:04:55;;;;;;;;;;;;;;;;;;5012187;28;20075;-70
2020/12/16 09:07:21;;;;;;;;;;;;;;;;;;5013671;28;20393;-68
2020/12/16 09:09:47;;;;;;;;;;;;;;;;;;5011722;28;20424;-69
2020/12/16 09:12:13;;;;;;;;;;;;;;;;;;5011809;28;20370;-69
2020/12/16 09:14:39;;;;;;;;;;;;;;;;;;5013107;28;20000;-70
2020/12/16 09:17:05;;;;;;;;;;;;;;;;;;5013084;28;20370;-70
2020/12/16 09:19:31;;;;;;;;;;;;;;;;;;5013115;28;19901;-69
2020/12/16 09:21:57;;;;;;;;;;;;;;;;;;5012987;28;19905;-69
2020/12/16 09:24:23;;;;;;;;;;;;;;;;;;5011705;28;19994;-70
2020/12/16 09:26:50;;;;;;;;;;;;;;;;;;5012995;28;19921;-69
2020/12/16 09:29:16;;;;;;;;;;;;;;;;;;5011705;28;19905;-68
2020/12/16 09:31:42;;;;;;;;;;;;;;;;;;5011622;28;20004;-70
2020/12/16 09:34:08;;;;;;;;;;;;;;;;;;5012993;28;20000;-65
2020/12/16 09:36:34;;;;;;;;;;;;;;;;;;5010153;28;19951;-68
2020/12/16 09:39:00;;;;;;;;;;;;;;;;;;5010036;28;19999;-68
2020/12/16 09:41:26;;;;;;;;;;;;;;;;;;5012501;28;19906;-68
2020/12/16 09:43:52;;;;;;;;;;;;;;;;;;5016094;28;19913;-67
2020/12/16 09:46:18;;;;;;;;;;;;;;;;;;5014128;28;19905;-67
2020/12/16 09:48:44;;;;;;;;;;;;;;;;;;5013099;28;20449;-68
2020/12/16 09:51:09;;;;;;;;;;;;;;;;;;5013075;28;19959;-67
2020/12/16 09:53:35;;;;;;;;;;;;;;;;;;5012805;28;20461;-69
2020/12/16 09:56:01;;;;;;;;;;;;;;;;;;5012873;28;19953;-66
2020/12/16 09:58:27;;;;;;;;;;;;;;;;;;5012739;28;19912;-67
2020/12/16 10:00:53;;;;;;;;;;;;;;;;;;5012707;28;20354;-69
2020/12/16 10:03:20;;;;;;;;;;;;;;;;;;5014303;28;19913;-68
2020/12/16 10:05:46;;;;;;;;;;;;;;;;;;5015502;28;20329;-68
2020/12/16 10:08:15;;;;;;;;;;;;;;;;;;5016651;28;20362;-68
2020/12/16 10:10:42;;;;;;;;;;;;;;;;;;5016510;28;19905;-68
2020/12/16 10:13:08;;;;;;;;;;;;;;;;;;5016429;28;19917;-66
2020/12/16 10:15:34;;;;;;;;;;;;;;;;;;5016621;28;19912;-67
2020/12/16 10:18:00;;;;;;;;;;;;;;;;;;5014947;28;19909;-68
2020/12/16 10:20:26;;;;;;;;;;;;;;;;;;5016414;28;19917;-67
2020/12/16 10:22:52;;;;;;;;;;;;;;;;;;5016251;28;19909;-67
2020/12/16 10:25:18;;;;;;;;;;;;;;;;;;5015288;28;20443;-67
2020/12/16 10:27:44;;;;;;;;;;;;;;;;;;5016430;28;20339;-68
2020/12/16 10:30:10;;;;;;;;;;;;;;;;;;5016217;28;19905;-66
2020/12/16 10:32:38;;;;;;;;;;;;;;;;;;5016258;28;20008;-67
2020/12/16 10:35:04;;;;;;;;;;;;;;;;;;5016233;28;19905;-68
2020/12/16 10:37:30;;;;;;;;;;;;;;;;;;5014786;28;20251;-66
2020/12/16 10:39:55;;;;;;;;;;;;;;;;;;5016117;28;19901;-69
2020/12/16 10:42:21;;;;;;;;;;;;;;;;;;5015912;28;19917;-69
2020/12/16 10:44:47;;;;;;;;;;;;;;;;;;5016191;28;19910;-68
2020/12/16 10:47:13;;;;;;;;;;;;;;;;;;5014758;28;19956;-67
2020/12/16 10:49:39;;;;;;;;;;;;;;;;;;5015792;28;19913;-68
2020/12/16 10:52:05;;;;;;;;;;;;;;;;;;5015889;28;19908;-68
2020/12/16 10:54:31;;;;;;;;;;;;;;;;;;5014390;28;19905;-68
2020/12/16 10:56:57;;;;;;;;;;;;;;;;;;5016044;28;20255;-68
2020/12/16 10:59:23;;;;;;;;;;;;;;;;;;5016292;28;20334;-67
2020/12/16 11:01:49;;;;;;;;;;;;;;;;;;5016176;28;19913;-68
2020/12/16 11:04:15;;;;;;;;;;;;;;;;;;5015858;28;19921;-67
2020/12/16 11:06:41;;;;;;;;;;;;;;;;;;5015594;28;19913;-66
2020/12/16 11:09:07;;;;;;;;;;;;;;;;;;5014363;28;19905;-67
2020/12/16 11:11:33;;;;;;;;;;;;;;;;;;5015386;28;19905;-66
2020/12/16 11:13:59;;;;;;;;;;;;;;;;;;5014653;28;20839;-66
2020/12/16 11:16:25;;;;;;;;;;;;;;;;;;5014854;28;20428;-67
2020/12/16 11:18:51;;;;;;;;;;;;;;;;;;5015419;28;19905;-66
2020/12/16 11:21:17;;;;;;;;;;;;;;;;;;5015354;28;20405;-66
2020/12/16 11:23:43;;;;;;;;;;;;;;;;;;5015092;28;19913;-66
2020/12/16 11:26:09;;;;;;;;;;;;;;;;;;5013918;28;19913;-67
2020/12/16 11:28:35;;;;;;;;;;;;;;;;;;5015162;28;20050;-66
2020/12/16 11:31:01;;;;;;;;;;;;;;;;;;5015134;28;20365;-66
2020/12/16 11:33:27;;;;;;;;;;;;;;;;;;5015119;28;19909;-66
2020/12/16 11:35:52;;;;;;;;;;;;;;;;;;5013701;28;19905;-66
2020/12/16 11:38:18;;;;;;;;;;;;;;;;;;5014980;28;19912;-66
2020/12/16 11:40:44;;;;;;;;;;;;;;;;;;5014877;28;19976;-66
2020/12/16 11:43:10;;;;;;;;;;;;;;;;;;5014734;28;19913;-67
2020/12/16 11:45:36;;;;;;;;;;;;;;;;;;5013475;28;19960;-67
2020/12/16 11:48:02;;;;;;;;;;;;;;;;;;5014803;28;19909;-68
2020/12/16 11:50:28;;;;;;;;;;;;;;;;;;5014589;28;19986;-68
2020/12/16 11:52:54;;;;;;;;;;;;;;;;;;5014567;28;19905;-68
2020/12/16 11:55:20;;;;;;;;;;;;;;;;;;5013308;28;19905;-69
2020/12/16 11:57:46;;;;;;;;;;;;;;;;;;5014443;28;20047;-67
2020/12/16 12:00:12;;;;;;;;;;;;;;;;;;5014301;28;19953;-67
2020/12/16 12:02:38;;;;;;;;;;;;;;;;;;5014407;28;20010;-69
2020/12/16 12:05:04;;;;;;;;;;;;;;;;;;5014389;28;19909;-68
2020/12/16 12:07:30;;;;;;;;;;;;;;;;;;5014329;28;19906;-70
2020/12/16 12:09:55;;;;;;;;;;;;;;;;;;5014105;28;19952;-70
2020/12/16 12:12:21;;;;;;;;;;;;;;;;;;5014293;28;19967;-71
2020/12/16 12:14:47;;;;;;;;;;;;;;;;;;5015035;28;19905;-69
2020/12/16 12:17:13;;;;;;;;;;;;;;;;;;5015795;28;19909;-70
2020/12/16 12:19:41;;;;;;;;;;;;;;;;;;5014771;28;19905;-69
2020/12/16 12:22:06;;;;;;;;;;;;;;;;;;5014125;28;19912;-68
2020/12/16 12:24:32;;;;;;;;;;;;;;;;;;5014293;28;20305;-71
2020/12/16 12:26:58;;;;;;;;;;;;;;;;;;5013601;28;19987;-68
2020/12/16 12:29:24;;;;;;;;;;;;;;;;;;5014153;28;20429;-68
2020/12/16 12:31:50;;;;;;;;;;;;;;;;;;5014048;28;19988;-69
2020/12/16 12:34:16;;;;;;;;;;;;;;;;;;5012623;28;20007;-67
2020/12/16 12:36:42;;;;;;;;;;;;;;;;;;5012687;28;20410;-68
2020/12/16 12:39:08;;;;;;;;;;;;;;;;;;5012570;28;20377;-69
2020/12/16 12:41:34;;;;;;;;;;;;;;;;;;5013970;28;19906;-67
2020/12/16 12:44:00;;;;;;;;;;;;;;;;;;5013609;28;19919;-70
2020/12/16 12:46:26;;;;;;;;;;;;;;;;;;5012287;28;19968;-69
2020/12/16 12:48:52;;;;;;;;;;;;;;;;;;5013617;28;19969;-67
2020/12/16 12:51:18;;;;;;;;;;;;;;;;;;5013297;28;19913;-68
2020/12/16 12:53:44;;;;;;;;;;;;;;;;;;5013389;28;20416;-70
2020/12/16 12:56:10;;;;;;;;;;;;;;;;;;5013533;28;19927;-68
2020/12/16 12:58:36;;;;;;;;;;;;;;;;;;5012370;28;19918;-68
2020/12/16 13:01:02;;;;;;;;;;;;;;;;;;5013736;28;19906;-69
2020/12/16 13:03:28;;;;;;;;;;;;;;;;;;5012867;28;20304;-69
2020/12/16 13:05:54;;;;;;;;;;;;;;;;;;5013239;28;19905;-68
2020/12/16 13:08:20;;;;;;;;;;;;;;;;;;5013252;28;19905;-69
2020/12/16 13:10:46;;;;;;;;;;;;;;;;;;5013260;28;19909;-68
2020/12/16 13:13:12;;;;;;;;;;;;;;;;;;5013126;28;20278;-69
2020/12/16 13:15:38;;;;;;;;;;;;;;;;;;5013291;28;19905;-68
2020/12/16 13:18:19;;;;;;;;;;;;;;;;;;4990823;28;19928;-68
2020/12/16 13:20:45;;;;;;;;;;;;;;;;;;5013349;28;19906;-69
2020/12/16 13:23:12;;;;;;;;;;;;;;;;;;5010315;28;19913;-68
2020/12/16 13:25:37;;;;;;;;;;;;;;;;;;5012848;28;19909;-69
2020/12/16 13:28:03;;;;;;;;;;;;;;;;;;5011704;28;20013;-69
2020/12/16 13:30:29;;;;;;;;;;;;;;;;;;5013383;28;20366;-69
2020/12/16 13:32:55;;;;;;;;;;;;;;;;;;5015124;28;19912;-68
2020/12/16 13:35:21;;;;;;;;;;;;;;;;;;5012995;28;19909;-68
2020/12/16 13:37:47;;;;;;;;;;;;;;;;;;5012373;28;19962;-67
2020/12/16 13:40:13;;;;;;;;;;;;;;;;;;5013129;28;19960;-67
2020/12/16 13:42:39;;;;;;;;;;;;;;;;;;5012885;28;19979;-68
2020/12/16 13:45:05;;;;;;;;;;;;;;;;;;5011651;28;20409;-68
2020/12/16 13:47:31;;;;;;;;;;;;;;;;;;5012856;28;19901;-69
2020/12/16 13:49:57;;;;;;;;;;;;;;;;;;5011577;28;20343;-69
2020/12/16 13:52:23;;;;;;;;;;;;;;;;;;5012941;28;19948;-68
2020/12/16 13:54:49;;;;;;;;;;;;;;;;;;5012985;28;19945;-69
2020/12/16 13:57:14;;;;;;;;;;;;;;;;;;5012900;28;20412;-69
2020/12/16 13:59:40;;;;;;;;;;;;;;;;;;5012833;28;19913;-68
2020/12/16 14:02:06;;;;;;;;;;;;;;;;;;5011465;28;19936;-68
2020/12/16 14:04:32;;;;;;;;;;;;;;;;;;5012769;28;20362;-69
2020/12/16 14:06:58;;;;;;;;;;;;;;;;;;5012828;28;19913;-68
2020/12/16 14:09:24;;;;;;;;;;;;;;;;;;5012539;28;19905;-68
2020/12/16 14:11:51;;;;;;;;;;;;;;;;;;5012503;28;20281;-69
2020/12/16 14:14:17;;;;;;;;;;;;;;;;;;5012275;28;20346;-68
2020/12/16 14:16:43;;;;;;;;;;;;;;;;;;5012184;28;19912;-68
2020/12/16 14:19:08;;;;;;;;;;;;;;;;;;5012526;28;19993;-68
2020/12/16 14:21:34;;;;;;;;;;;;;;;;;;5012286;28;19912;-68
2020/12/16 14:24:00;;;;;;;;;;;;;;;;;;5012443;28;19913;-68
2020/12/16 14:26:26;;;;;;;;;;;;;;;;;;5012491;28;19906;-68
2020/12/16 14:28:52;;;;;;;;;;;;;;;;;;5012208;28;19905;-68
2020/12/16 14:31:19;;;;;;;;;;;;;;;;;;5012430;28;20293;-67
2020/12/16 14:33:45;;;;;;;;;;;;;;;;;;5012158;28;19960;-67
2020/12/16 14:36:11;;;;;;;;;;;;;;;;;;5012407;28;19917;-67
2020/12/16 14:38:37;;;;;;;;;;;;;;;;;;5012365;28;20270;-66
2020/12/16 14:41:03;;;;;;;;;;;;;;;;;;5012271;28;19909;-67
2020/12/16 14:43:29;;;;;;;;;;;;;;;;;;5012257;28;19913;-67
2020/12/16 14:45:55;;;;;;;;;;;;;;;;;;5012135;28;20365;-64
2020/12/16 14:48:21;;;;;;;;;;;;;;;;;;5014461;28;20278;-67
2020/12/16 14:50:47;;;;;;;;;;;;;;;;;;5018571;28;19906;-66
2020/12/16 14:53:13;;;;;;;;;;;;;;;;;;5016876;28;20318;-66
2020/12/16 14:55:39;;;;;;;;;;;;;;;;;;5015927;28;19905;-66
2020/12/16 14:58:05;;;;;;;;;;;;;;;;;;5015608;28;20247;-66
2020/12/16 15:00:31;;;;;;;;;;;;;;;;;;5015918;28;20354;-65
2020/12/16 15:02:57;;;;;;;;;;;;;;;;;;5015430;28;19913;-65
2020/12/16 15:05:23;;;;;;;;;;;;;;;;;;5015600;28;20428;-65
2020/12/16 15:07:49;;;;;;;;;;;;;;;;;;5015518;28;19913;-67
2020/12/16 15:10:16;;;;;;;;;;;;;;;;;;5015519;28;20485;-66
2020/12/16 15:12:42;;;;;;;;;;;;;;;;;;5016152;28;20351;-65
2020/12/16 15:15:08;;;;;;;;;;;;;;;;;;5017484;28;19905;-66
2020/12/16 15:17:34;;;;;;;;;;;;;;;;;;5017297;28;19911;-67
2020/12/16 15:20:00;;;;;;;;;;;;;;;;;;5015483;28;20388;-66
2020/12/16 15:22:27;;;;;;;;;;;;;;;;;;5015134;28;20373;-66
2020/12/16 15:24:53;;;;;;;;;;;;;;;;;;5015178;28;19905;-67
2020/12/16 15:27:19;;;;;;;;;;;;;;;;;;5013699;28;19913;-66
2020/12/16 15:29:45;;;;;;;;;;;;;;;;;;5015240;28;20660;-66
2020/12/16 15:32:12;;;;;;;;;;;;;;;;;;5013645;28;20023;-64
2020/12/16 15:34:38;;;;;;;;;;;;;;;;;;5014679;28;19909;-67
2020/12/16 15:37:04;;;;;;;;;;;;;;;;;;5014921;28;20281;-65
2020/12/16 15:39:30;;;;;;;;;;;;;;;;;;5014789;28;19905;-66
2020/12/16 15:41:56;;;;;;;;;;;;;;;;;;5014796;28;20110;-64
2020/12/16 15:44:22;;;;;;;;;;;;;;;;;;5014640;28;19948;-67
2020/12/16 15:46:48;;;;;;;;;;;;;;;;;;5014476;28;19931;-66
2020/12/16 15:49:14;;;;;;;;;;;;;;;;;;5013412;28;20376;-67
2020/12/16 15:51:39;;;;;;;;;;;;;;;;;;5013258;28;19916;-66
2020/12/16 15:54:05;;;;;;;;;;;;;;;;;;5013274;28;19909;-65
2020/12/16 15:56:31;;;;;;;;;;;;;;;;;;5014511;28;19909;-67
2020/12/16 15:58:57;;;;;;;;;;;;;;;;;;5014367;28;19916;-65
2020/12/16 16:01:23;;;;;;;;;;;;;;;;;;5013665;28;19906;-66
2020/12/16 16:03:49;;;;;;;;;;;;;;;;;;5014397;28;19913;-68
2020/12/16 16:06:15;;;;;;;;;;;;;;;;;;5024618;28;19909;-66
2020/12/16 16:08:41;;;;;;;;;;;;;;;;;;5013622;28;19905;-66
2020/12/16 16:11:07;;;;;;;;;;;;;;;;;;5013787;28;20048;-66
2020/12/16 16:13:33;;;;;;;;;;;;;;;;;;5012309;28;19948;-66
2020/12/16 16:15:59;;;;;;;;;;;;;;;;;;5011032;28;20357;-66
2020/12/16 16:18:25;;;;;;;;;;;;;;;;;;5012638;28;20354;-65
2020/12/16 16:20:51;;;;;;;;;;;;;;;;;;5012552;28;20322;-65
2020/12/16 16:23:17;;;;;;;;;;;;;;;;;;5011035;28;20381;-67
2020/12/16 16:25:42;;;;;;;;;;;;;;;;;;5012434;28;19913;-66
2020/12/16 16:28:08;;;;;;;;;;;;;;;;;;5013903;28;19912;-66
2020/12/16 16:30:34;;;;;;;;;;;;;;;;;;5014001;28;19928;-66
2020/12/16 16:33:01;;;;;;;;;;;;;;;;;;5013736;28;20366;-66
2020/12/16 16:35:27;;;;;;;;;;;;;;;;;;5012641;28;19909;-66